Time;durP1;ratioP1;P1;durP2;ratioP2;P2;SDS_P1;SDS_P2;PMS_P1;PMS_P2;Temp;Humidity;BMP_temperature;BMP_pressure;BME280_temperature;BME280_humidity;BME280_pressure;Samples;Min_cycle;Max_cycle;Signal;HPM_P1;HPM_P2
2023/03/09 00:01:46;;;;;;;7.80;4.90;;;;;;;20.50;47.05;99926.06;5053467;28;20399;-49
2023/03/09 00:04:15;;;;;;;6.32;3.75;;;;;;;20.51;47.50;99929.59;5053141;28;20045;-48
2023/03/09 00:06:43;;;;;;;6.57;4.72;;;;;;;20.51;46.98;99926.88;5052596;28;20052;-48
2023/03/09 00:09:12;;;;;;;6.88;4.03;;;;;;;20.51;46.84;99924.19;5053254;28;20053;-48
2023/03/09 00:14:45;;;;;;;7.00;4.32;;;;;;;20.50;46.88;99926.06;5060463;28;20055;-49
2023/03/09 00:17:13;;;;;;;6.32;4.53;;;;;;;20.49;46.68;99914.44;5053776;28;20067;-48
2023/03/09 00:19:40;;;;;;;6.57;4.47;;;;;;;20.49;46.69;99910.91;5053891;28;20049;-47
2023/03/09 00:22:08;;;;;;;5.43;4.88;;;;;;;20.49;46.88;99905.53;5053264;28;20411;-48
2023/03/09 00:24:35;;;;;;;7.18;4.30;;;;;;;20.47;46.74;99905.66;5053584;28;20053;-49
2023/03/09 00:27:03;;;;;;;8.25;4.60;;;;;;;20.47;46.80;99908.34;5053697;28;20049;-48
2023/03/09 00:29:30;;;;;;;8.35;4.43;;;;;;;20.48;46.70;99904.69;5052600;28;20063;-46
2023/03/09 00:31:58;;;;;;;9.38;4.70;;;;;;;20.47;46.78;99905.66;5053668;28;20041;-48
2023/03/09 00:34:26;;;;;;;7.32;4.60;;;;;;;20.47;46.76;99902.97;5052111;28;20071;-48
2023/03/09 00:36:53;;;;;;;5.85;4.90;;;;;;;20.47;46.79;99911.03;5052003;28;20063;-48
2023/03/09 00:39:20;;;;;;;6.55;4.40;;;;;;;20.47;46.69;99910.19;5053418;28;20049;-48
2023/03/09 00:41:48;;;;;;;8.02;4.20;;;;;;;20.47;46.72;99899.44;5053436;28;20517;-48
2023/03/09 00:44:15;;;;;;;7.22;3.88;;;;;;;20.47;46.79;99896.75;5052202;28;20506;-48
2023/03/09 00:46:42;;;;;;;7.03;4.47;;;;;;;20.47;46.68;99894.06;5052725;28;20053;-47
2023/03/09 00:49:12;;;;;;;5.85;3.88;;;;;;;20.46;46.79;99878.94;5056125;28;20057;-48
2023/03/09 00:51:41;;;;;;;7.05;5.30;;;;;;;20.47;46.64;99886.84;5057596;28;20053;-48
2023/03/09 00:54:12;;;;;;;6.47;4.38;;;;;;;20.46;46.57;99879.78;5056185;28;20057;-49
2023/03/09 00:56:41;;;;;;;5.10;3.80;;;;;;;20.46;46.65;99876.25;5057506;28;20052;-46
2023/03/09 00:59:08;;;;;;;6.35;4.63;;;;;;;20.46;46.60;99879.78;5057656;28;20056;-48
2023/03/09 01:01:35;;;;;;;9.27;5.40;;;;;;;20.46;46.55;99885.16;5057242;28;20066;-50
2023/03/09 01:04:03;;;;;;;8.55;4.20;;;;;;;20.46;46.47;99878.94;5055744;28;20057;-47
2023/03/09 01:06:31;;;;;;;5.63;3.83;;;;;;;20.45;46.55;99866.50;5057350;28;20048;-46
2023/03/09 01:08:58;;;;;;;5.13;3.83;;;;;;;20.45;46.49;99869.19;5055885;28;20053;-46
2023/03/09 01:11:26;;;;;;;5.40;4.10;;;;;;;20.46;46.64;99879.78;5056320;28;20049;-50
2023/03/09 01:13:53;;;;;;;8.90;4.35;;;;;;;20.45;46.57;99877.25;5057152;28;20060;-46
2023/03/09 01:16:21;;;;;;;6.72;4.30;;;;;;;20.44;46.53;99867.50;5056120;28;20060;-47
2023/03/09 01:18:49;;;;;;;6.93;4.05;;;;;;;20.45;46.70;99861.13;5055622;28;20057;-46
2023/03/09 01:21:17;;;;;;;6.50;4.10;;;;;;;20.44;46.75;99860.28;5055125;28;20049;-51
2023/03/09 01:23:45;;;;;;;7.88;4.18;;;;;;;20.45;46.46;99871.88;5056884;28;20053;-48
2023/03/09 01:26:12;;;;;;;7.72;4.85;;;;;;;20.45;46.72;99871.88;5056527;28;20063;-47
2023/03/09 01:28:40;;;;;;;7.18;4.38;;;;;;;20.44;46.50;99864.81;5056856;28;20056;-47
2023/03/09 01:31:13;;;;;;;6.53;4.35;;;;;;;20.43;46.62;99874.72;5055720;28;20056;-52
2023/03/09 01:33:42;;;;;;;5.82;4.10;;;;;;;20.43;46.52;99868.50;5055699;28;20517;-47
2023/03/09 01:36:14;;;;;;;7.95;4.25;;;;;;;20.43;46.55;99873.88;5056806;28;20049;-49
2023/03/09 01:38:42;;;;;;;6.93;4.30;;;;;;;20.44;46.36;99883.63;5055258;28;20049;-47
2023/03/09 01:41:11;;;;;;;6.57;4.40;;;;;;;20.44;46.46;99886.31;5054985;28;20052;-48
2023/03/09 01:43:42;;;;;;;6.20;4.07;;;;;;;20.43;46.53;99885.47;5055696;28;20053;-49
2023/03/09 01:46:26;;;;;;;5.80;4.15;;;;;;;20.43;46.42;99890.03;5054980;28;20044;-46
2023/03/09 01:49:00;;;;;;;7.50;4.25;;;;;;;20.43;46.46;99888.16;5055480;28;20053;-46
2023/03/09 01:51:35;;;;;;;6.55;3.72;;;;;;;20.43;46.44;99884.66;5056315;28;20052;-47
2023/03/09 01:54:04;;;;;;;6.78;3.95;;;;;;;20.43;46.40;99873.88;5056401;28;20060;-46
2023/03/09 01:56:34;;;;;;;5.15;4.03;;;;;;;20.43;46.62;99871.19;5056371;28;20040;-47
2023/03/09 01:59:03;;;;;;;5.30;4.20;;;;;;;20.42;46.66;99864.16;5053798;28;20056;-49
2023/03/09 02:01:31;;;;;;;6.15;3.58;;;;;;;20.43;46.51;99876.59;5055191;28;20057;-48
2023/03/09 02:04:10;;;;;;;6.05;4.28;;;;;;;20.43;46.48;99873.88;5055277;28;20053;-47
2023/03/09 02:06:37;;;;;;;6.72;4.47;;;;;;;20.43;46.50;99871.19;5054664;28;20498;-48
2023/03/09 02:09:27;;;;;;;6.25;4.25;;;;;;;20.42;46.59;99873.06;5056138;28;20375;-50
2023/03/09 02:11:58;;;;;;;5.78;4.10;;;;;;;20.43;46.56;99866.66;5054691;28;20063;-51
2023/03/09 02:14:28;;;;;;;7.07;3.92;;;;;;;20.43;46.61;99858.59;5054439;28;20049;-48
2023/03/09 02:16:55;;;;;;;4.78;3.45;;;;;;;20.42;46.55;99854.22;5055861;28;20045;-49
2023/03/09 02:19:42;;;;;;;4.35;3.58;;;;;;;20.43;46.42;99857.75;5054278;28;20049;-47
2023/03/09 02:22:10;;;;;;;6.50;4.40;;;;;;;20.42;46.42;99861.47;5054285;28;20052;-48
2023/03/09 02:24:48;;;;;;;6.82;4.00;;;;;;;20.43;46.36;99865.81;5054888;28;20052;-49
2023/03/09 02:27:20;;;;;;;6.60;4.35;;;;;;;20.43;46.50;99871.19;5054889;28;20048;-50
2023/03/09 02:29:48;;;;;;;5.15;4.07;;;;;;;20.42;46.59;99873.06;5037892;28;20061;-47
2023/03/09 02:32:18;;;;;;;7.38;3.95;;;;;;;20.43;46.73;99861.28;5054379;28;20494;-50
2023/03/09 02:34:45;;;;;;;5.65;4.10;;;;;;;20.43;46.60;99873.88;5055360;28;20056;-47
2023/03/09 02:37:32;;;;;;;7.43;4.00;;;;;;;20.43;46.67;99874.72;5054518;28;20053;-48
2023/03/09 02:40:31;;;;;;;6.35;4.13;;;;;;;20.43;46.88;99879.28;5055429;28;20064;-46
2023/03/09 02:43:03;;;;;;;5.10;3.80;;;;;;;20.42;46.64;99875.75;5053720;28;20060;-46
2023/03/09 02:45:32;;;;;;;5.90;4.57;;;;;;;20.43;46.43;99873.88;5054436;28;20057;-50
2023/03/09 02:48:00;;;;;;;5.85;4.53;;;;;;;20.42;46.74;99859.63;5054140;28;20052;-48
2023/03/09 02:50:28;;;;;;;6.88;4.30;;;;;;;20.42;46.56;99856.91;5037788;28;20052;-47
2023/03/09 02:52:56;;;;;;;5.68;3.55;;;;;;;20.41;46.55;99851.69;5053230;28;20517;-48
2023/03/09 02:55:24;;;;;;;8.05;4.18;;;;;;;20.41;46.52;99847.16;5054260;28;20414;-50
2023/03/09 02:57:52;;;;;;;5.63;3.92;;;;;;;20.42;46.62;99839.97;5053337;28;20541;-47
2023/03/09 03:00:23;;;;;;;5.18;3.97;;;;;;;20.41;46.81;99827.50;5054415;28;20049;-47
2023/03/09 03:02:51;;;;;;;5.43;3.85;;;;;;;20.41;46.51;99824.81;5053849;28;20056;-47
2023/03/09 03:05:19;;;;;;;5.82;3.90;;;;;;;20.41;46.67;99832.88;5054985;28;20495;-49
2023/03/09 03:07:46;;;;;;;5.10;3.90;;;;;;;20.41;46.43;99840.94;5053507;28;20056;-48
2023/03/09 03:10:15;;;;;;;5.38;4.20;;;;;;;20.41;46.55;99849.00;5053727;28;20052;-47
2023/03/09 03:12:42;;;;;;;5.70;4.07;;;;;;;20.41;46.58;99841.78;5053890;28;20056;-50
2023/03/09 03:15:10;;;;;;;7.25;4.40;;;;;;;20.40;46.58;99832.03;5053512;28;20075;-48
2023/03/09 03:17:37;;;;;;;5.32;4.20;;;;;;;20.40;46.51;99813.22;5053399;28;20049;-49
2023/03/09 03:20:13;;;;;;;5.35;3.97;;;;;;;20.40;46.61;99815.91;5053355;28;20049;-47
2023/03/09 03:22:43;;;;;;;6.18;4.13;;;;;;;20.41;46.66;99814.06;5053580;28;20060;-49
2023/03/09 03:25:12;;;;;;;5.53;3.83;;;;;;;20.41;46.53;99800.63;5053092;28;20423;-48
2023/03/09 03:27:44;;;;;;;6.85;3.65;;;;;;;20.40;46.49;99796.25;5053580;28;20060;-49
2023/03/09 03:30:13;;;;;;;5.65;4.05;;;;;;;20.40;46.47;99794.41;5054431;28;20037;-46
2023/03/09 03:32:42;;;;;;;6.95;4.00;;;;;;;20.41;46.41;99792.53;5053581;28;20048;-51
2023/03/09 03:35:11;;;;;;;6.03;3.80;;;;;;;20.40;46.43;99794.41;5053190;28;20059;-46
2023/03/09 03:37:42;;;;;;;5.72;3.55;;;;;;;20.41;46.35;99803.31;5053314;28;20403;-48
2023/03/09 03:40:10;;;;;;;4.90;3.80;;;;;;;20.41;46.29;99811.38;5053432;28;20395;-48
2023/03/09 03:42:41;;;;;;;5.90;4.10;;;;;;;20.41;46.38;99806.00;5053564;28;20049;-50
2023/03/09 03:45:10;;;;;;;5.53;3.83;;;;;;;20.40;46.32;99791.72;5053462;28;20049;-47
2023/03/09 03:47:38;;;;;;;6.57;4.35;;;;;;;20.40;46.43;99772.91;5053226;28;20045;-45
2023/03/09 03:50:06;;;;;;;7.20;4.43;;;;;;;20.40;46.52;99775.59;5052986;28;20060;-46
2023/03/09 03:52:39;;;;;;;5.03;3.92;;;;;;;20.41;46.58;99779.09;5052394;28;20056;-46
2023/03/09 03:55:08;;;;;;;5.45;3.72;;;;;;;20.40;46.55;99778.28;5053120;28;20381;-47
2023/03/09 03:57:35;;;;;;;4.75;3.33;;;;;;;20.41;46.38;99761.13;5052477;28;20129;-47
2023/03/09 04:00:09;;;;;;;6.45;4.00;;;;;;;20.40;46.29;99761.31;5054091;28;20502;-47
2023/03/09 04:02:39;;;;;;;5.32;3.72;;;;;;;20.41;46.49;99744.16;5060572;28;20056;-49
2023/03/09 04:05:13;;;;;;;5.00;3.63;;;;;;;20.40;46.61;99756.75;5052908;28;20060;-50
2023/03/09 04:07:43;;;;;;;6.13;4.57;;;;;;;20.40;46.60;99756.75;5052198;28;20053;-48
2023/03/09 04:10:11;;;;;;;5.22;3.78;;;;;;;20.40;46.35;99767.53;5052823;28;20045;-47
2023/03/09 04:12:42;;;;;;;5.65;3.55;;;;;;;20.40;46.29;99761.31;5052303;28;20045;-48
2023/03/09 04:15:11;;;;;;;4.82;3.75;;;;;;;20.41;46.75;99757.59;5052789;28;20048;-49
2023/03/09 04:17:38;;;;;;;5.03;3.28;;;;;;;20.41;46.54;99762.97;5052816;28;20063;-47
2023/03/09 04:20:07;;;;;;;6.13;3.92;;;;;;;20.41;46.35;99768.34;5052460;28;20045;-48
2023/03/09 04:22:35;;;;;;;6.60;3.53;;;;;;;20.41;46.59;99771.88;5052142;28;20049;-47
2023/03/09 04:25:03;;;;;;;5.13;3.55;;;;;;;20.41;46.36;99776.41;5053628;28;20064;-47
2023/03/09 04:27:30;;;;;;;5.53;4.25;;;;;;;20.40;46.43;99767.53;5053559;28;20111;-49
2023/03/09 04:30:13;;;;;;;5.88;4.20;;;;;;;20.40;46.42;99755.94;5052546;28;20055;-47
2023/03/09 04:32:40;;;;;;;6.30;3.75;;;;;;;20.40;46.30;99746.00;5052520;28;20403;-48
2023/03/09 04:35:09;;;;;;;7.10;4.00;;;;;;;20.40;46.49;99742.50;5052084;28;20056;-47
2023/03/09 04:37:41;;;;;;;5.65;3.85;;;;;;;20.38;46.35;99737.28;5052556;28;20044;-46
2023/03/09 04:40:10;;;;;;;7.22;3.55;;;;;;;20.38;46.63;99745.34;5051915;28;20414;-48
2023/03/09 04:42:38;;;;;;;5.80;3.45;;;;;;;20.38;46.50;99736.44;5051898;28;20045;-48
2023/03/09 04:45:06;;;;;;;5.53;3.50;;;;;;;20.37;46.31;99750.88;5052232;28;20057;-46
2023/03/09 04:47:34;;;;;;;6.40;3.78;;;;;;;20.38;46.16;99763.34;5052594;28;20502;-47
2023/03/09 04:50:02;;;;;;;5.22;3.47;;;;;;;20.37;46.25;99750.88;5052355;28;20049;-48
2023/03/09 04:52:34;;;;;;;7.88;3.67;;;;;;;20.36;46.23;99759.94;5052029;28;20053;-46
2023/03/09 04:55:01;;;;;;;5.65;3.72;;;;;;;20.36;46.09;99766.16;5053404;28;20052;-48
2023/03/09 04:57:28;;;;;;;4.88;3.97;;;;;;;20.35;45.97;99796.75;5053270;28;20510;-46
2023/03/09 04:59:56;;;;;;;6.45;3.78;;;;;;;20.35;46.10;99788.69;5052265;28;20060;-49
2023/03/09 05:02:28;;;;;;;8.63;3.95;;;;;;;20.36;46.15;99793.03;5051977;28;20049;-47
2023/03/09 05:04:56;;;;;;;6.28;3.95;;;;;;;20.36;46.03;99792.22;5051913;28;20057;-50
2023/03/09 05:07:23;;;;;;;6.13;3.83;;;;;;;20.35;46.07;99802.13;5051792;28;20514;-47
2023/03/09 05:09:51;;;;;;;5.72;3.80;;;;;;;20.35;46.21;99812.88;5051341;28;20056;-50
2023/03/09 05:12:19;;;;;;;5.22;3.70;;;;;;;20.35;46.14;99807.50;5052135;28;20528;-48
2023/03/09 05:14:47;;;;;;;4.63;3.55;;;;;;;20.36;46.07;99813.72;5051496;28;20064;-47
2023/03/09 05:17:17;;;;;;;5.80;3.42;;;;;;;20.36;46.16;99816.41;5052131;28;20048;-49
2023/03/09 05:19:45;;;;;;;5.85;3.75;;;;;;;20.36;46.29;99824.47;5052019;28;20060;-48
2023/03/09 05:22:12;;;;;;;4.25;2.97;;;;;;;20.35;46.41;99828.16;5052900;28;20057;-47
2023/03/09 05:24:40;;;;;;;5.20;3.40;;;;;;;20.36;46.33;99829.84;5051410;28;20064;-48
2023/03/09 05:27:09;;;;;;;5.45;3.42;;;;;;;20.36;46.31;99843.28;5051626;28;20057;-46
2023/03/09 05:29:36;;;;;;;6.03;3.65;;;;;;;20.36;46.29;99843.28;5052914;28;20056;-48
2023/03/09 05:32:04;;;;;;;6.63;3.83;;;;;;;20.36;46.25;99843.28;5052964;28;20518;-50
2023/03/09 05:34:34;;;;;;;4.30;3.03;;;;;;;20.35;46.29;99838.91;5053723;28;20051;-48
2023/03/09 05:37:02;;;;;;;5.85;3.30;;;;;;;20.35;46.35;99839.75;5055072;28;20052;-49
2023/03/09 05:39:31;;;;;;;4.00;3.10;;;;;;;20.34;46.35;99854.22;5054945;28;20064;-46
2023/03/09 05:41:59;;;;;;;4.65;3.35;;;;;;;20.35;46.21;99857.72;5055465;28;20049;-46
2023/03/09 05:44:33;;;;;;;5.25;3.30;;;;;;;20.36;46.14;99867.47;5055259;28;20053;-46
2023/03/09 05:47:00;;;;;;;4.68;3.10;;;;;;;20.35;46.34;99874.69;5056463;28;20051;-47
2023/03/09 05:49:27;;;;;;;4.95;3.47;;;;;;;20.34;46.37;99878.41;5056356;28;20045;-47
2023/03/09 05:51:55;;;;;;;6.57;4.57;;;;;;;20.35;46.07;99876.56;5056395;28;20056;-46
2023/03/09 05:54:22;;;;;;;5.05;3.92;;;;;;;20.35;46.34;99882.75;5055278;28;20049;-46
2023/03/09 05:56:54;;;;;;;6.00;3.65;;;;;;;20.36;46.51;99876.38;5055054;28;20049;-47
2023/03/09 05:59:22;;;;;;;4.75;3.70;;;;;;;20.35;46.61;99877.38;5055226;28;20044;-49
2023/03/09 06:01:49;;;;;;;4.03;3.28;;;;;;;20.36;46.56;99886.28;5055193;28;20057;-48
2023/03/09 06:04:23;;;;;;;7.22;4.15;;;;;;;20.36;46.39;99895.19;5054821;28;20049;-49
2023/03/09 06:06:55;;;;;;;4.95;3.70;;;;;;;20.36;46.33;99905.94;5055210;28;20075;-49
2023/03/09 06:09:28;;;;;;;4.88;3.42;;;;;;;20.36;46.53;99895.19;5054733;28;20045;-47
2023/03/09 06:11:56;;;;;;;6.05;4.18;;;;;;;20.35;46.51;99893.50;5055675;28;20052;-47
2023/03/09 06:14:24;;;;;;;6.32;3.92;;;;;;;20.36;46.54;99883.59;5055099;28;20049;-50
2023/03/09 06:16:52;;;;;;;5.25;4.05;;;;;;;20.34;46.50;99889.16;5054769;28;20076;-48
2023/03/09 06:19:20;;;;;;;5.15;3.60;;;;;;;20.34;46.38;99894.53;5054501;28;20064;-50
2023/03/09 06:21:50;;;;;;;6.07;3.78;;;;;;;20.35;46.58;99898.06;5054184;28;20049;-47
2023/03/09 06:24:18;;;;;;;4.95;3.63;;;;;;;20.33;46.32;99895.50;5054382;28;20518;-46
2023/03/09 06:26:45;;;;;;;5.32;3.90;;;;;;;20.34;46.48;99901.75;5054117;28;20056;-47
2023/03/09 06:29:16;;;;;;;5.65;4.28;;;;;;;20.34;46.38;99907.13;5054917;28;20057;-47
2023/03/09 06:31:46;;;;;;;5.85;3.85;;;;;;;20.33;46.32;99895.50;5055695;28;20501;-49
2023/03/09 06:34:14;;;;;;;6.38;4.05;;;;;;;20.34;46.43;99904.44;5055687;28;20422;-46
2023/03/09 06:36:41;;;;;;;5.72;3.78;;;;;;;20.34;46.20;99910.66;5053990;28;20045;-47
2023/03/09 06:39:11;;;;;;;5.82;4.15;;;;;;;20.34;46.07;99907.13;5054524;28;20123;-46
2023/03/09 06:41:39;;;;;;;4.65;3.70;;;;;;;20.35;46.29;99908.81;5053654;28;20053;-49
2023/03/09 06:44:13;;;;;;;7.22;4.35;;;;;;;20.35;46.12;99906.13;5053766;28;20553;-49
2023/03/09 06:46:44;;;;;;;5.90;3.88;;;;;;;20.35;46.06;99903.44;5054151;28;20049;-49
2023/03/09 06:49:13;;;;;;;6.28;4.38;;;;;;;20.35;46.02;99914.19;5054435;28;20053;-48
2023/03/09 06:51:41;;;;;;;7.68;4.60;;;;;;;20.35;46.17;99915.03;5054151;28;20068;-47
2023/03/09 06:54:09;;;;;;;7.90;4.70;;;;;;;20.36;46.12;99919.38;5055367;28;20037;-47
2023/03/09 06:56:42;;;;;;;6.00;4.10;;;;;;;20.36;46.14;99926.59;5053397;28;20498;-46
2023/03/09 06:59:09;;;;;;;5.25;3.75;;;;;;;20.37;46.13;99923.75;5054147;28;20060;-49
2023/03/09 07:01:37;;;;;;;5.90;4.22;;;;;;;20.36;45.97;99932.81;5053449;28;20056;-49
2023/03/09 07:04:04;;;;;;;6.43;4.40;;;;;;;20.37;46.00;99939.88;5054774;28;20048;-47
2023/03/09 07:06:32;;;;;;;6.30;3.85;;;;;;;20.38;45.93;99941.59;5053292;28;20059;-48
2023/03/09 07:08:59;;;;;;;5.80;4.13;;;;;;;20.39;45.93;99934.38;5053901;28;20052;-48
2023/03/09 07:11:26;;;;;;;5.53;4.10;;;;;;;20.38;46.04;99930.84;5054742;28;20048;-48
2023/03/09 07:13:53;;;;;;;8.10;4.40;;;;;;;20.39;45.96;99937.88;5054795;28;20045;-49
2023/03/09 07:16:22;;;;;;;5.85;4.20;;;;;;;20.39;46.09;99940.56;5054773;28;20052;-48
2023/03/09 07:18:50;;;;;;;4.38;3.30;;;;;;;20.40;45.99;99941.41;5055298;28;20057;-47
2023/03/09 07:21:17;;;;;;;6.45;3.65;;;;;;;20.40;46.04;99941.41;5054871;28;20049;-47
2023/03/09 07:23:44;;;;;;;6.43;3.65;;;;;;;20.40;46.03;99941.41;5054337;28;20049;-48
2023/03/09 07:26:12;;;;;;;9.43;4.43;;;;;;;20.40;46.14;99934.19;5054505;28;20365;-49
2023/03/09 07:28:39;;;;;;;5.78;4.20;;;;;;;20.41;46.15;99943.09;5054486;28;20041;-47
2023/03/09 07:31:08;;;;;;;5.20;4.18;;;;;;;20.41;45.97;99943.09;5054679;28;20045;-47
2023/03/09 07:33:36;;;;;;;7.32;4.38;;;;;;;20.41;46.05;99949.31;5054055;28;20048;-49
2023/03/09 07:36:08;;;;;;;6.35;3.97;;;;;;;20.41;45.93;99949.31;5054071;28;20041;-47
2023/03/09 07:38:35;;;;;;;5.35;4.07;;;;;;;20.41;45.90;99940.41;5054101;28;20052;-47
2023/03/09 07:41:03;;;;;;;5.30;3.10;;;;;;;20.42;46.12;99936.75;5054215;28;20518;-46
2023/03/09 07:43:30;;;;;;;7.90;3.83;;;;;;;20.42;46.06;99939.44;5054152;28;20041;-46
2023/03/09 07:46:06;;;;;;;5.57;3.70;;;;;;;20.42;46.21;99934.88;5053488;28;20053;-48
2023/03/09 07:48:36;;;;;;;4.95;3.30;;;;;;;20.42;45.99;99937.56;5054237;28;20056;-49
2023/03/09 07:51:05;;;;;;;8.05;3.65;;;;;;;20.43;46.44;99927.66;5054165;28;20051;-49
2023/03/09 07:53:35;;;;;;;5.28;3.30;;;;;;;20.44;46.17;99942.78;5054152;28;20060;-48
2023/03/09 07:56:03;;;;;;;4.82;3.22;;;;;;;20.43;46.42;99943.78;5052821;28;20053;-50
2023/03/09 07:58:33;;;;;;;9.23;3.97;;;;;;;20.45;46.30;99941.78;5053478;28;20056;-48
2023/03/09 08:01:00;;;;;;;6.53;4.07;;;;;;;20.44;46.41;99935.56;5053889;28;20468;-48
2023/03/09 08:03:29;;;;;;;7.35;3.80;;;;;;;20.45;46.55;99942.59;5053777;28;20045;-49
2023/03/09 08:05:56;;;;;;;5.55;3.30;;;;;;;20.47;46.71;99935.25;5052253;28;20068;-48
2023/03/09 08:08:27;;;;;;;9.30;4.13;;;;;;;20.48;46.73;99936.94;5053751;28;20072;-47
2023/03/09 08:10:54;;;;;;;8.57;4.05;;;;;;;20.50;46.56;99944.88;5053794;28;20056;-45
2023/03/09 08:13:22;;;;;;;7.70;3.80;;;;;;;20.51;46.65;99946.56;5053575;28;20056;-49
2023/03/09 08:15:51;;;;;;;6.80;3.85;;;;;;;20.53;46.60;99955.28;5053631;28;20399;-46
2023/03/09 08:18:19;;;;;;;8.27;3.63;;;;;;;20.53;46.61;99951.75;5053572;28;20049;-48
2023/03/09 08:20:47;;;;;;;5.85;3.60;;;;;;;20.55;46.66;99964.03;5053602;28;20053;-49
2023/03/09 08:23:14;;;;;;;7.53;3.70;;;;;;;20.56;46.70;99965.72;5052804;28;20060;-47
2023/03/09 08:25:42;;;;;;;7.07;3.58;;;;;;;20.57;47.41;99962.03;5052929;28;20045;-47
2023/03/09 08:28:20;;;;;;;6.85;3.22;;;;;;;20.60;47.60;99961.72;5052921;28;20064;-52
2023/03/09 08:31:43;;;;;;;5.07;3.00;;;;;;;20.62;47.75;99957.03;5052150;28;20049;-47
2023/03/09 08:34:11;;;;;;;5.03;3.25;;;;;;;20.64;47.76;99959.53;5053117;28;20402;-49
2023/03/09 08:36:38;;;;;;;4.95;2.88;;;;;;;20.65;47.60;99951.31;5052971;28;20513;-47
2023/03/09 08:39:05;;;;;;;6.07;3.20;;;;;;;20.67;47.50;99945.78;5053075;28;20395;-49
2023/03/09 08:41:33;;;;;;;5.55;3.38;;;;;;;20.69;47.49;99949.13;5053260;28;20045;-51
2023/03/09 08:44:00;;;;;;;5.60;3.80;;;;;;;20.70;47.49;99951.69;5053439;28;20041;-47
2023/03/09 08:46:28;;;;;;;4.68;3.20;;;;;;;20.71;47.46;99952.53;5052199;28;20051;-48
2023/03/09 08:48:56;;;;;;;5.43;2.90;;;;;;;20.72;47.42;99952.34;5052999;28;20041;-48
2023/03/09 08:51:23;;;;;;;6.20;2.97;;;;;;;20.73;47.34;99955.88;5052858;28;20049;-48
2023/03/09 08:53:51;;;;;;;5.03;3.38;;;;;;;20.74;47.29;99961.13;5053163;28;20057;-48
2023/03/09 08:56:18;;;;;;;4.93;2.85;;;;;;;20.75;47.33;99959.25;5052913;28;20438;-50
2023/03/09 08:58:47;;;;;;;6.68;3.05;;;;;;;20.76;46.96;99963.63;5052936;28;20411;-49
2023/03/09 09:01:14;;;;;;;6.28;3.10;;;;;;;20.77;47.09;99968.00;5052989;28;20506;-47
2023/03/09 09:03:42;;;;;;;4.65;3.50;;;;;;;20.78;47.13;99968.84;5052441;28;20045;-46
2023/03/09 09:06:12;;;;;;;5.75;3.30;;;;;;;20.79;47.21;99965.16;5052674;28;20049;-47
2023/03/09 09:08:40;;;;;;;4.65;2.85;;;;;;;20.80;47.32;99972.22;5054831;28;20041;-49
2023/03/09 09:11:09;;;;;;;6.95;3.53;;;;;;;20.81;47.41;99984.66;5056695;28;20048;-47
2023/03/09 09:13:40;;;;;;;5.95;3.10;;;;;;;20.84;47.49;99984.34;5056936;28;20048;-52
2023/03/09 09:16:10;;;;;;;5.13;2.65;;;;;;;20.84;47.27;99968.19;5056384;28;20360;-49
2023/03/09 09:18:38;;;;;;;5.15;3.20;;;;;;;20.85;47.00;99975.25;5056722;28;20375;-49
2023/03/09 09:21:14;;;;;;;6.00;3.17;;;;;;;20.85;46.85;99980.63;5056602;28;20045;-48
2023/03/09 09:23:42;;;;;;;;;;;;;;;20.84;46.82;99984.34;5057019;28;20060;-51
2023/03/09 09:26:11;;;;;;;5.65;2.90;;;;;;;20.85;46.72;99991.41;5056708;28;19921;-46
2023/03/09 09:28:39;;;;;;;4.65;2.67;;;;;;;20.86;46.85;99993.06;5058451;28;20052;-50
2023/03/09 09:31:12;;;;;;;3.63;2.65;;;;;;;20.85;46.98;99988.72;5075373;28;20053;-53
2023/03/09 09:33:40;;;;;;;6.50;3.70;;;;;;;20.85;46.90;99986.84;5074401;28;20048;-54
2023/03/09 09:36:11;;;;;;;5.70;3.53;;;;;;;20.86;46.89;99982.31;5075224;28;20552;-52
2023/03/09 09:38:39;;;;;;;6.28;3.53;;;;;;;20.86;46.59;99966.19;5076254;28;20049;-50
2023/03/09 09:41:14;;;;;;;3.95;2.47;;;;;;;20.88;46.77;99977.63;5075677;28;20502;-49
2023/03/09 09:43:43;;;;;;;6.05;3.42;;;;;;;20.86;46.42;99976.94;5076330;28;20053;-47
2023/03/09 09:46:15;;;;;;;4.60;3.08;;;;;;;20.85;46.74;99975.25;5076137;28;20040;-49
2023/03/09 09:48:45;;;;;;;4.53;2.92;;;;;;;20.86;46.71;99966.19;5076201;28;20434;-49
2023/03/09 09:51:47;;;;;;;7.03;3.85;;;;;;;20.87;46.51;99970.56;5076060;28;20036;-49
2023/03/09 09:54:38;;;;;;;8.03;2.90;;;;;;;20.87;46.58;99967.88;5076252;28;20044;-48
2023/03/09 09:57:41;;;;;;;8.25;3.22;;;;;;;20.87;46.79;99974.09;5076258;28;20467;-47
2023/03/09 10:00:09;;;;;;;;;;;;;;;20.87;46.93;99971.41;5076379;28;20055;-49
2023/03/09 10:03:19;;;;;;;6.57;2.78;;;;;;;20.88;46.91;99983.84;5075928;28;19920;-48
2023/03/09 10:06:05;;;;;;;5.53;2.90;;;;;;;20.88;46.58;99973.09;5060812;28;20041;-50
2023/03/09 10:09:17;;;;;;;7.22;3.10;;;;;;;20.89;46.54;99976.63;5055922;28;20468;-51
2023/03/09 10:11:48;;;;;;;6.07;2.85;;;;;;;20.89;46.55;99979.31;5055397;28;20064;-48
2023/03/09 10:14:18;;;;;;;5.38;2.75;;;;;;;20.89;46.86;99982.00;5055098;28;20053;-50
2023/03/09 10:16:54;;;;;;;6.82;3.38;;;;;;;20.90;46.74;99989.06;5055682;28;20406;-47
2023/03/09 10:19:29;;;;;;;5.85;3.33;;;;;;;20.91;46.69;99988.06;5062560;28;20048;-49
2023/03/09 10:22:07;;;;;;;4.82;2.63;;;;;;;20.91;46.78;99982.69;5075693;28;20051;-47
2023/03/09 10:24:43;;;;;;;4.43;2.83;;;;;;;20.91;46.72;99983.53;5075475;28;20053;-49
2023/03/09 10:27:23;;;;;;;4.97;3.15;;;;;;;20.91;46.54;99986.22;5075783;28;20067;-51
2023/03/09 10:30:26;;;;;;;5.22;2.75;;;;;;;20.91;46.58;99986.22;5075432;28;20074;-51
2023/03/09 10:32:57;;;;;;;6.00;3.33;;;;;;;20.93;46.70;99983.34;5074976;28;20049;-46
2023/03/09 10:35:40;;;;;;;6.32;2.75;;;;;;;20.92;46.64;99976.31;5075455;28;20044;-49
2023/03/09 10:38:11;;;;;;;7.03;3.00;;;;;;;20.93;46.66;99984.19;5075245;28;20055;-48
2023/03/09 10:40:55;;;;;;;6.85;3.20;;;;;;;20.94;46.80;99983.22;5058825;28;20049;-48
2023/03/09 10:43:32;;;;;;;5.07;2.97;;;;;;;20.95;46.44;99986.75;5055290;28;20052;-51
2023/03/09 10:46:23;;;;;;;5.68;3.28;;;;;;;20.95;46.52;99992.97;5055520;28;20407;-48
2023/03/09 10:49:12;;;;;;;5.38;2.88;;;;;;;20.95;46.37;99989.44;5055225;28;20373;-51
2023/03/09 10:51:43;;;;;;;8.15;2.72;;;;;;;20.94;46.45;99993.09;5054496;28;20052;-52
2023/03/09 10:54:23;;;;;;;5.63;3.05;;;;;;;20.94;46.44;99990.41;5055354;28;20044;-49
2023/03/09 10:56:52;;;;;;;5.65;2.55;;;;;;;20.95;46.55;99984.06;5054930;28;20048;-49
2023/03/09 10:59:25;;;;;;;4.85;3.08;;;;;;;20.95;46.37;99982.19;5053254;28;20506;-49
2023/03/09 11:01:56;;;;;;;4.18;2.90;;;;;;;20.94;46.55;99985.91;5054976;28;20387;-57
2023/03/09 11:04:23;;;;;;;5.32;3.15;;;;;;;20.95;46.41;99984.06;5055100;28;20045;-48
2023/03/09 11:06:53;;;;;;;4.65;3.17;;;;;;;20.94;46.54;99983.22;5054819;28;20052;-48
2023/03/09 11:09:27;;;;;;;6.18;3.13;;;;;;;20.95;46.55;99978.66;5054894;28;20056;-50
2023/03/09 11:12:09;;;;;;;6.93;3.00;;;;;;;20.94;46.29;99969.75;5054871;28;20045;-52
2023/03/09 11:15:04;;;;;;;4.97;3.33;;;;;;;20.94;46.33;99964.38;5053932;28;20056;-52
2023/03/09 11:17:33;;;;;;;5.03;2.88;;;;;;;20.94;46.40;99964.38;5054519;28;20045;-50
2023/03/09 11:20:37;;;;;;;6.35;3.35;;;;;;;20.95;46.39;99966.06;5054469;28;20056;-50
2023/03/09 11:23:10;;;;;;;5.00;2.70;;;;;;;20.96;46.33;99956.13;5053917;28;20061;-49
2023/03/09 11:26:00;;;;;;;4.07;3.17;;;;;;;20.96;46.38;99958.81;5054648;28;20049;-48
2023/03/09 11:28:58;;;;;;;7.43;3.20;;;;;;;20.96;46.14;99948.06;5054507;28;20487;-51
2023/03/09 11:31:34;;;;;;;7.15;3.00;;;;;;;20.97;46.28;99963.19;5054442;28;20071;-50
2023/03/09 11:34:06;;;;;;;5.43;2.88;;;;;;;20.96;46.38;99953.44;5054576;28;20055;-48
2023/03/09 11:36:41;;;;;;;6.25;2.83;;;;;;;20.95;46.30;99949.06;5054379;28;20036;-51
2023/03/09 11:39:36;;;;;;;6.13;2.83;;;;;;;20.95;46.23;99932.94;5054398;28;20463;-51
2023/03/09 11:42:10;;;;;;;4.57;2.85;;;;;;;20.96;46.41;99937.31;5053850;28;20052;-50
2023/03/09 11:44:43;;;;;;;5.28;2.67;;;;;;;20.97;46.32;99941.66;5054424;28;20422;-49
2023/03/09 11:47:29;;;;;;;6.70;3.22;;;;;;;20.96;46.28;99935.44;5054284;28;20044;-48
2023/03/09 11:50:02;;;;;;;3.42;2.38;;;;;;;20.96;46.48;99940.81;5054049;28;20396;-50
2023/03/09 11:52:38;;;;;;;5.00;2.67;;;;;;;20.96;46.38;99934.59;5054079;28;20045;-48
2023/03/09 11:55:15;;;;;;;6.65;2.85;;;;;;;20.95;46.67;99931.06;5054163;28;20049;-47
2023/03/09 11:57:47;;;;;;;4.30;2.58;;;;;;;20.96;46.44;99927.38;5054016;28;20475;-48